Detall de PIREP

Printer-friendly versionPDF version

[2012/01/17 09:19:00]
Flight IATA:CT2110
Pilot Number:041
Company ICAO:CAT
Aircraft Type:F50/A
PAX:32
Aircraft Registration:PAOB
Departing Airport: LEVC
Destination Airport: LEST
Alternate Airport:LEMD
Online: VATSIM
Route:CENTA A33 PRADO A33 CJN A33 HORTA A33 MAGIN A33 INDEG A33 DISKO A33 ZMR A33 BARKO A33 FORNO


Flight Level:F190
No Slew and time accel
No pause
Crash detect
Detect pilot in Cockpit between each 30 and 45 minutes
09:19 Zero fuel Weight: 35102 Lbs, Fuel Weight: 9058 Lbs
09:19 VATSIM:LEVC 170900Z 03012KT 360V070 9999 FEW040 BKN060 12/07 Q1025 NOSIG
09:19 VATSIM:LEST 170900Z 13006KT CAVOK 03/02 Q1028 NOSIG
09:19 VOICE CATALONIAN
09:24 Parking Brakes off
09:31 Take-off
09:31 Take off Weight: 44024 Lbs
09:31 Wind: 016º @ 009 Knots Heading: 112º
09:31 POS N39º 29´ 25´´ W000º 29´ 02´´
09:31 Gear Up: 121 Knots
09:31 Flaps:2 at 121 Knots
09:31 Flaps:1at 145 Knots
09:31 Flaps:0 at 148 Knots
09:46 Wind:055º@016 Knots Heading: 332º Ground Speed: 216 Knots Altitude 13540 ft
09:51 TOC
09:51 Fuel Weight: 8185 Lb
10:01 Wind:049º@036 Knots Heading: 306º Ground Speed: 269 Knots Altitude 19406 ft
10:16 Wind:040º@029 Knots Heading: 303º Ground Speed: 263 Knots Altitude 19419 ft
10:31 Wind:017º@025 Knots Heading: 301º Ground Speed: 252 Knots Altitude 19442 ft
10:46 Wind:012º@048 Knots Heading: 314º Ground Speed: 241 Knots Altitude 19465 ft
10:49 TOD
10:49 Fuel Weight: 6506 Lb
11:01 Wind:022º@006 Knots Heading: 305º Ground Speed: 240 Knots Altitude 8503 ft
11:16 Wind:215º@006 Knots Heading: 299º Ground Speed: 245 Knots Altitude 6473 ft
11:21 Flaps:1 at 172 Knots
11:25 Flaps:2 at 153 Knots
11:26 Flaps:3 at 150 Knots
11:26 Gear Down: 147 Knots
11:28 Flaps:4 at 117 Knots
11:30 TouchDown:Rate -130 ft/min Speed: 106 Knots
11:31 Wind:136º@002 Knots Heading: 164º Ground Speed: 096 Knots Altitude 1223 ft
11:31 VATSIM:LEST 171100Z 12004KT CAVOK 06/03 Q1029 NOSIG
11:31 Land
11:31 Wind:136º@002 Knots
11:31 Heading: 165º
11:31 Flight Duration: 02:00
11:31 Landing Weight: 40617 Lbs
11:31 POS N42º 53´ 53´´ W008º 24´ 56´´
11:33 Parking brakes on
11:33 Block to Block Duration: 02:09
11:33 Final Fuel: 5489 Lbls
11:33 Spent Fuel: 3569 Lbls
11:33 Flight Length: 469 NM
11:33 TOD Land Length: 149 NM

Exportar CSV

Powered by Drupal - Modified by Danger4k